sensor_id;sensor_type;location;lat;lon;timestamp;pressure;altitude;pressure_sealevel;temperature;humidity
64679;BME280;51094;53.864;27.676;2024-03-22T00:00:44;99483.13;;;3.62;76.04
64679;BME280;51094;53.864;27.676;2024-03-22T00:03:10;99457.09;;;3.48;75.60
64679;BME280;51094;53.864;27.676;2024-03-22T00:05:43;99479.28;;;3.50;74.81
64679;BME280;51094;53.864;27.676;2024-03-22T00:08:09;99468.03;;;3.53;76.19
64679;BME280;51094;53.864;27.676;2024-03-22T00:10:36;99456.25;;;3.47;76.00
64679;BME280;51094;53.864;27.676;2024-03-22T00:13:05;99400.44;;;2.84;75.67
64679;BME280;51094;53.864;27.676;2024-03-22T00:15:39;99462.72;;;3.36;75.18
64679;BME280;51094;53.864;27.676;2024-03-22T00:18:05;99383.03;;;2.92;76.29
64679;BME280;51094;53.864;27.676;2024-03-22T00:20:31;99413.97;;;3.11;76.17
64679;BME280;51094;53.864;27.676;2024-03-22T00:22:57;99468.75;;;3.34;76.32
64679;BME280;51094;53.864;27.676;2024-03-22T00:25:26;99458.47;;;3.34;76.30
64679;BME280;51094;53.864;27.676;2024-03-22T00:27:53;99393.31;;;2.92;76.38
64679;BME280;51094;53.864;27.676;2024-03-22T00:30:22;99434.03;;;3.24;75.98
64679;BME280;51094;53.864;27.676;2024-03-22T00:32:50;99453.50;;;3.30;76.53
64679;BME280;51094;53.864;27.676;2024-03-22T00:35:16;99458.72;;;3.28;75.67
64679;BME280;51094;53.864;27.676;2024-03-22T00:37:43;99454.63;;;3.23;76.23
64679;BME280;51094;53.864;27.676;2024-03-22T00:40:21;99434.25;;;3.18;76.65
64679;BME280;51094;53.864;27.676;2024-03-22T00:42:50;99366.50;;;2.76;76.90
64679;BME280;51094;53.864;27.676;2024-03-22T00:45:18;99424.91;;;3.16;76.43
64679;BME280;51094;53.864;27.676;2024-03-22T00:47:44;99422.28;;;3.17;76.30
64679;BME280;51094;53.864;27.676;2024-03-22T00:50:10;99391.63;;;2.91;75.83
64679;BME280;51094;53.864;27.676;2024-03-22T00:52:39;99448.88;;;3.16;75.86
64679;BME280;51094;53.864;27.676;2024-03-22T00:55:05;99371.38;;;2.60;76.01
64679;BME280;51094;53.864;27.676;2024-03-22T00:57:37;99451.72;;;3.09;76.14
64679;BME280;51094;53.864;27.676;2024-03-22T01:00:05;99394.81;;;2.74;76.24
64679;BME280;51094;53.864;27.676;2024-03-22T01:02:39;99416.47;;;2.90;75.95
64679;BME280;51094;53.864;27.676;2024-03-22T01:05:08;99432.63;;;3.16;75.74
64679;BME280;51094;53.864;27.676;2024-03-22T01:07:36;99422.56;;;3.10;76.12
64679;BME280;51094;53.864;27.676;2024-03-22T01:10:04;99380.50;;;2.90;76.30
64679;BME280;51094;53.864;27.676;2024-03-22T01:12:32;99336.75;;;2.70;75.61
64679;BME280;51094;53.864;27.676;2024-03-22T01:14:58;99423.97;;;3.18;76.17
64679;BME280;51094;53.864;27.676;2024-03-22T01:17:24;99424.75;;;3.20;76.22
64679;BME280;51094;53.864;27.676;2024-03-22T01:19:53;99382.03;;;2.96;76.24
64679;BME280;51094;53.864;27.676;2024-03-22T01:22:20;99364.16;;;2.70;75.42
64679;BME280;51094;53.864;27.676;2024-03-22T01:24:52;99432.44;;;2.98;75.41
64679;BME280;51094;53.864;27.676;2024-03-22T01:27:19;99430.94;;;2.93;75.98
64679;BME280;51094;53.864;27.676;2024-03-22T01:29:46;99434.66;;;2.84;75.83
64679;BME280;51094;53.864;27.676;2024-03-22T01:32:15;99150.94;;;1.14;75.39
64679;BME280;51094;53.864;27.676;2024-03-22T01:34:41;99379.31;;;2.54;75.57
64679;BME280;51094;53.864;27.676;2024-03-22T01:37:07;99422.56;;;2.88;76.25
64679;BME280;51094;53.864;27.676;2024-03-22T01:39:33;99416.25;;;2.96;75.95
64679;BME280;51094;53.864;27.676;2024-03-22T01:42:02;99410.69;;;3.07;76.18
64679;BME280;51094;53.864;27.676;2024-03-22T01:44:34;99409.56;;;3.14;75.80
64679;BME280;51094;53.864;27.676;2024-03-22T01:47:00;99402.81;;;3.12;75.56
64679;BME280;51094;53.864;27.676;2024-03-22T01:49:30;99337.34;;;2.55;76.13
64679;BME280;51094;53.864;27.676;2024-03-22T01:52:01;99396.09;;;3.08;76.18
64679;BME280;51094;53.864;27.676;2024-03-22T01:54:31;99269.16;;;2.01;75.65
64679;BME280;51094;53.864;27.676;2024-03-22T01:56:57;99304.53;;;2.40;76.32
64679;BME280;51094;53.864;27.676;2024-03-22T01:59:23;99385.03;;;2.84;75.82
64679;BME280;51094;53.864;27.676;2024-03-22T02:01:51;99137.25;;;1.38;76.40
64679;BME280;51094;53.864;27.676;2024-03-22T02:04:17;99394.09;;;2.94;76.26
64679;BME280;51094;53.864;27.676;2024-03-22T02:06:46;99368.19;;;2.77;76.62
64679;BME280;51094;53.864;27.676;2024-03-22T02:09:15;99245.97;;;2.04;77.15
64679;BME280;51094;53.864;27.676;2024-03-22T02:11:47;99185.72;;;1.69;77.27
64679;BME280;51094;53.864;27.676;2024-03-22T02:14:13;99399.00;;;3.00;77.41
64679;BME280;51094;53.864;27.676;2024-03-22T02:16:40;99310.34;;;2.45;76.61
64679;BME280;51094;53.864;27.676;2024-03-22T02:19:07;99383.03;;;2.68;76.96
64679;BME280;51094;53.864;27.676;2024-03-22T02:21:36;99248.13;;;1.91;77.51
64679;BME280;51094;53.864;27.676;2024-03-22T02:24:05;99378.72;;;2.69;77.89
64679;BME280;51094;53.864;27.676;2024-03-22T02:26:34;99364.44;;;2.62;78.38
64679;BME280;51094;53.864;27.676;2024-03-22T02:29:00;99371.66;;;2.52;78.20
64679;BME280;51094;53.864;27.676;2024-03-22T02:31:26;99366.22;;;2.37;78.28
64679;BME280;51094;53.864;27.676;2024-03-22T02:33:52;99371.66;;;2.52;78.37
64679;BME280;51094;53.864;27.676;2024-03-22T02:36:18;99376.75;;;2.54;78.80
64679;BME280;51094;53.864;27.676;2024-03-22T02:38:47;99333.31;;;2.24;78.81
64679;BME280;51094;53.864;27.676;2024-03-22T02:41:13;99359.25;;;2.40;78.77
64679;BME280;51094;53.864;27.676;2024-03-22T02:43:44;99308.63;;;1.97;79.20
64679;BME280;51094;53.864;27.676;2024-03-22T02:46:10;99297.84;;;1.87;79.17
64679;BME280;51094;53.864;27.676;2024-03-22T02:48:39;99268.34;;;1.76;79.55
64679;BME280;51094;53.864;27.676;2024-03-22T02:51:06;99392.16;;;2.29;79.37
64679;BME280;51094;53.864;27.676;2024-03-22T02:53:35;99331.56;;;2.02;79.66
64679;BME280;51094;53.864;27.676;2024-03-22T02:56:06;99364.34;;;2.17;79.55
64679;BME280;51094;53.864;27.676;2024-03-22T02:58:32;99367.50;;;2.25;80.50
64679;BME280;51094;53.864;27.676;2024-03-22T03:01:03;99336.53;;;2.06;80.24
64679;BME280;51094;53.864;27.676;2024-03-22T03:03:32;99367.22;;;2.32;80.84
64679;BME280;51094;53.864;27.676;2024-03-22T03:05:58;99314.72;;;1.94;79.98
64679;BME280;51094;53.864;27.676;2024-03-22T03:08:27;99357.91;;;2.30;80.65
64679;BME280;51094;53.864;27.676;2024-03-22T03:10:53;99311.88;;;2.02;80.59
64679;BME280;51094;53.864;27.676;2024-03-22T03:13:19;99286.50;;;1.94;80.65
64679;BME280;51094;53.864;27.676;2024-03-22T03:15:50;99347.75;;;2.27;80.45
64679;BME280;51094;53.864;27.676;2024-03-22T03:18:16;99351.50;;;1.93;80.24
64679;BME280;51094;53.864;27.676;2024-03-22T03:20:43;99251.06;;;1.57;80.74
64679;BME280;51094;53.864;27.676;2024-03-22T03:23:09;99138.09;;;0.89;80.25
64679;BME280;51094;53.864;27.676;2024-03-22T03:25:35;99342.78;;;2.22;80.88
64679;BME280;51094;53.864;27.676;2024-03-22T03:28:01;99290.84;;;1.92;81.28
64679;BME280;51094;53.864;27.676;2024-03-22T03:30:28;99316.81;;;2.08;81.04
64679;BME280;51094;53.864;27.676;2024-03-22T03:32:54;99339.47;;;2.19;81.04
64679;BME280;51094;53.864;27.676;2024-03-22T03:35:20;99147.41;;;0.91;80.67
64679;BME280;51094;53.864;27.676;2024-03-22T03:37:46;99341.56;;;2.09;81.33
64679;BME280;51094;53.864;27.676;2024-03-22T03:40:12;99274.03;;;1.60;80.54
64679;BME280;51094;53.864;27.676;2024-03-22T03:42:38;99298.94;;;1.80;81.03
64679;BME280;51094;53.864;27.676;2024-03-22T03:45:06;99346.75;;;2.08;81.42
64679;BME280;51094;53.864;27.676;2024-03-22T03:47:35;99340.16;;;2.00;81.09
64679;BME280;51094;53.864;27.676;2024-03-22T03:50:02;99327.50;;;1.71;80.97
64679;BME280;51094;53.864;27.676;2024-03-22T03:52:30;99290.69;;;1.22;80.53
64679;BME280;51094;53.864;27.676;2024-03-22T03:54:56;99246.22;;;0.97;81.55
64679;BME280;51094;53.864;27.676;2024-03-22T03:57:24;99390.59;;;1.49;81.94
64679;BME280;51094;53.864;27.676;2024-03-22T03:59:51;99332.28;;;1.55;81.84
64679;BME280;51094;53.864;27.676;2024-03-22T04:02:17;99269.25;;;1.25;82.07
64679;BME280;51094;53.864;27.676;2024-03-22T04:04:55;99318.44;;;1.61;82.18
64679;BME280;51094;53.864;27.676;2024-03-22T04:07:24;99235.22;;;1.21;82.42
64679;BME280;51094;53.864;27.676;2024-03-22T04:09:53;99257.53;;;1.43;82.46
64679;BME280;51094;53.864;27.676;2024-03-22T04:12:22;99294.97;;;1.73;83.13
64679;BME280;51094;53.864;27.676;2024-03-22T04:14:50;99324.22;;;1.91;81.83
64679;BME280;51094;53.864;27.676;2024-03-22T04:17:22;99282.13;;;1.48;81.85
64679;BME280;51094;53.864;27.676;2024-03-22T04:19:54;99301.47;;;1.82;82.67
64679;BME280;51094;53.864;27.676;2024-03-22T04:22:22;99275.09;;;1.78;82.26
64679;BME280;51094;53.864;27.676;2024-03-22T04:24:53;99327.91;;;2.09;81.62
64679;BME280;51094;53.864;27.676;2024-03-22T04:27:22;99295.66;;;2.02;82.17
64679;BME280;51094;53.864;27.676;2024-03-22T04:29:50;99234.84;;;1.57;80.57
64679;BME280;51094;53.864;27.676;2024-03-22T04:32:19;99302.25;;;1.84;81.57
64679;BME280;51094;53.864;27.676;2024-03-22T04:34:45;99199.00;;;1.30;81.64
64679;BME280;51094;53.864;27.676;2024-03-22T04:37:11;99321.19;;;2.05;81.71
64679;BME280;51094;53.864;27.676;2024-03-22T04:39:39;99225.41;;;1.32;81.39
64679;BME280;51094;53.864;27.676;2024-03-22T04:42:06;99285.88;;;1.88;81.28
64679;BME280;51094;53.864;27.676;2024-03-22T04:44:32;99380.34;;;2.00;80.18
64679;BME280;51094;53.864;27.676;2024-03-22T04:46:58;99332.13;;;2.10;81.43
64679;BME280;51094;53.864;27.676;2024-03-22T04:49:28;99298.00;;;2.08;81.95
64679;BME280;51094;53.864;27.676;2024-03-22T04:51:56;99338.28;;;2.29;81.27
64679;BME280;51094;53.864;27.676;2024-03-22T04:54:25;99249.16;;;1.38;80.81
64679;BME280;51094;53.864;27.676;2024-03-22T04:56:54;99321.41;;;2.22;80.79
64679;BME280;51094;53.864;27.676;2024-03-22T04:59:34;99263.38;;;1.96;81.38
64679;BME280;51094;53.864;27.676;2024-03-22T05:02:02;99307.81;;;2.43;81.48
64679;BME280;51094;53.864;27.676;2024-03-22T05:04:34;99295.28;;;2.36;80.88
64679;BME280;51094;53.864;27.676;2024-03-22T05:07:00;99303.63;;;2.41;80.27
64679;BME280;51094;53.864;27.676;2024-03-22T05:09:29;99313.84;;;2.42;79.99
64679;BME280;51094;53.864;27.676;2024-03-22T05:12:18;99243.13;;;1.88;79.59
64679;BME280;51094;53.864;27.676;2024-03-22T05:14:45;99312.78;;;2.24;79.60
64679;BME280;51094;53.864;27.676;2024-03-22T05:17:19;99263.53;;;1.91;80.14
64679;BME280;51094;53.864;27.676;2024-03-22T05:19:48;99331.47;;;2.28;80.02
64679;BME280;51094;53.864;27.676;2024-03-22T05:22:14;99318.19;;;2.17;79.82
64679;BME280;51094;53.864;27.676;2024-03-22T05:24:42;99322.66;;;2.12;79.74
64679;BME280;51094;53.864;27.676;2024-03-22T05:27:12;99278.50;;;2.04;80.38
64679;BME280;51094;53.864;27.676;2024-03-22T05:29:38;99281.25;;;2.21;80.52
64679;BME280;51094;53.864;27.676;2024-03-22T05:32:05;99320.63;;;2.66;80.23
64679;BME280;51094;53.864;27.676;2024-03-22T05:34:34;99311.00;;;2.95;80.90
64679;BME280;51094;53.864;27.676;2024-03-22T05:37:01;99282.44;;;2.81;79.18
64679;BME280;51094;53.864;27.676;2024-03-22T05:39:28;99316.91;;;2.97;79.75
64679;BME280;51094;53.864;27.676;2024-03-22T05:41:54;99090.00;;;1.70;79.46
64679;BME280;51094;53.864;27.676;2024-03-22T05:44:40;99305.13;;;2.91;78.95
64679;BME280;51094;53.864;27.676;2024-03-22T05:47:15;99062.66;;;1.24;78.23
64679;BME280;51094;53.864;27.676;2024-03-22T05:49:43;99318.84;;;2.68;78.12
64679;BME280;51094;53.864;27.676;2024-03-22T05:52:12;99324.34;;;2.59;78.50
64679;BME280;51094;53.864;27.676;2024-03-22T05:54:41;99320.31;;;2.52;77.97
64679;BME280;51094;53.864;27.676;2024-03-22T05:57:07;99199.84;;;1.79;78.65
64679;BME280;51094;53.864;27.676;2024-03-22T05:59:36;99312.72;;;2.49;79.04
64679;BME280;51094;53.864;27.676;2024-03-22T06:02:11;99321.56;;;2.64;78.86
64679;BME280;51094;53.864;27.676;2024-03-22T06:04:37;99334.53;;;2.61;78.59
64679;BME280;51094;53.864;27.676;2024-03-22T06:07:09;99310.25;;;2.23;78.62
64679;BME280;51094;53.864;27.676;2024-03-22T06:09:41;99321.31;;;2.25;79.21
64679;BME280;51094;53.864;27.676;2024-03-22T06:12:19;99301.69;;;2.24;79.86
64679;BME280;51094;53.864;27.676;2024-03-22T06:14:47;99329.53;;;2.58;79.55
64679;BME280;51094;53.864;27.676;2024-03-22T06:17:37;99283.22;;;2.38;79.57
64679;BME280;51094;53.864;27.676;2024-03-22T06:20:03;99052.69;;;0.91;79.34
64679;BME280;51094;53.864;27.676;2024-03-22T06:22:34;99326.41;;;2.95;78.96
64679;BME280;51094;53.864;27.676;2024-03-22T06:25:03;99308.47;;;2.93;79.36
64679;BME280;51094;53.864;27.676;2024-03-22T06:27:32;99135.31;;;1.91;78.56
64679;BME280;51094;53.864;27.676;2024-03-22T06:29:58;99284.03;;;2.83;77.95
64679;BME280;51094;53.864;27.676;2024-03-22T06:32:24;99305.03;;;2.94;78.32
64679;BME280;51094;53.864;27.676;2024-03-22T06:34:56;99277.19;;;2.84;78.73
64679;BME280;51094;53.864;27.676;2024-03-22T06:37:25;99287.81;;;2.96;78.31
64679;BME280;51094;53.864;27.676;2024-03-22T06:39:52;99216.75;;;2.53;78.32
64679;BME280;51094;53.864;27.676;2024-03-22T06:42:26;99285.41;;;3.14;78.42
64679;BME280;51094;53.864;27.676;2024-03-22T06:44:52;99259.50;;;2.98;77.68
64679;BME280;51094;53.864;27.676;2024-03-22T06:47:23;99256.47;;;3.09;78.67
64679;BME280;51094;53.864;27.676;2024-03-22T06:49:56;99278.31;;;3.41;78.49
64679;BME280;51094;53.864;27.676;2024-03-22T06:52:22;99168.66;;;2.79;77.46
64679;BME280;51094;53.864;27.676;2024-03-22T06:54:48;99168.06;;;2.72;77.60
64679;BME280;51094;53.864;27.676;2024-03-22T06:57:14;99256.00;;;3.21;78.02
64679;BME280;51094;53.864;27.676;2024-03-22T06:59:40;99216.59;;;3.00;77.88
64679;BME280;51094;53.864;27.676;2024-03-22T07:02:14;99227.00;;;2.75;77.87
64679;BME280;51094;53.864;27.676;2024-03-22T07:04:40;99256.63;;;3.26;78.31
64679;BME280;51094;53.864;27.676;2024-03-22T07:07:09;99224.44;;;3.17;78.62
64679;BME280;51094;53.864;27.676;2024-03-22T07:09:38;99254.53;;;3.36;77.30
64679;BME280;51094;53.864;27.676;2024-03-22T07:12:06;99211.72;;;2.94;77.69
64679;BME280;51094;53.864;27.676;2024-03-22T07:14:35;99263.75;;;3.19;78.18
64679;BME280;51094;53.864;27.676;2024-03-22T07:17:03;99256.22;;;3.15;78.99
64679;BME280;51094;53.864;27.676;2024-03-22T07:19:29;99306.13;;;3.31;78.97
64679;BME280;51094;53.864;27.676;2024-03-22T07:21:55;99252.75;;;3.38;78.92
64679;BME280;51094;53.864;27.676;2024-03-22T07:24:24;99246.03;;;3.54;79.66
64679;BME280;51094;53.864;27.676;2024-03-22T07:26:56;99238.38;;;3.73;79.52
64679;BME280;51094;53.864;27.676;2024-03-22T07:29:28;99269.91;;;3.96;78.75
64679;BME280;51094;53.864;27.676;2024-03-22T07:31:54;99209.84;;;3.97;78.63
64679;BME280;51094;53.864;27.676;2024-03-22T07:34:20;99227.44;;;4.07;77.39
64679;BME280;51094;53.864;27.676;2024-03-22T07:36:46;99225.28;;;3.97;77.25
64679;BME280;51094;53.864;27.676;2024-03-22T07:39:20;99014.09;;;2.71;77.43
64679;BME280;51094;53.864;27.676;2024-03-22T07:41:47;99205.59;;;3.96;77.68
64679;BME280;51094;53.864;27.676;2024-03-22T07:44:13;99227.31;;;4.10;77.80
64679;BME280;51094;53.864;27.676;2024-03-22T07:46:46;99238.94;;;4.18;77.61
64679;BME280;51094;53.864;27.676;2024-03-22T07:49:20;99228.84;;;4.14;77.32
64679;BME280;51094;53.864;27.676;2024-03-22T07:51:50;99234.13;;;4.29;76.37
64679;BME280;51094;53.864;27.676;2024-03-22T07:54:24;99149.34;;;3.70;77.27
64679;BME280;51094;53.864;27.676;2024-03-22T07:57:01;99208.47;;;4.28;77.23
64679;BME280;51094;53.864;27.676;2024-03-22T07:59:28;99245.94;;;4.33;76.88
64679;BME280;51094;53.864;27.676;2024-03-22T08:01:56;99129.00;;;3.84;76.73
64679;BME280;51094;53.864;27.676;2024-03-22T08:04:23;99199.28;;;4.22;76.39
64679;BME280;51094;53.864;27.676;2024-03-22T08:06:53;99226.19;;;4.34;76.55
64679;BME280;51094;53.864;27.676;2024-03-22T08:09:19;99171.88;;;4.03;77.54
64679;BME280;51094;53.864;27.676;2024-03-22T08:11:46;99214.03;;;4.74;77.95
64679;BME280;51094;53.864;27.676;2024-03-22T08:14:14;99223.22;;;4.96;77.35
64679;BME280;51094;53.864;27.676;2024-03-22T08:16:42;99222.13;;;5.19;77.02
64679;BME280;51094;53.864;27.676;2024-03-22T08:19:16;99267.00;;;5.15;75.16
64679;BME280;51094;53.864;27.676;2024-03-22T08:21:43;99218.16;;;5.29;75.88
64679;BME280;51094;53.864;27.676;2024-03-22T08:24:11;99213.91;;;5.46;75.37
64679;BME280;51094;53.864;27.676;2024-03-22T08:26:43;99105.69;;;4.94;74.38
64679;BME280;51094;53.864;27.676;2024-03-22T08:29:13;98950.13;;;3.77;72.51
64679;BME280;51094;53.864;27.676;2024-03-22T08:31:40;99215.19;;;5.54;73.08
64679;BME280;51094;53.864;27.676;2024-03-22T08:34:07;99187.56;;;5.56;74.30
64679;BME280;51094;53.864;27.676;2024-03-22T08:36:37;99170.06;;;5.46;71.72
64679;BME280;51094;53.864;27.676;2024-03-22T08:39:05;99187.81;;;5.34;73.01
64679;BME280;51094;53.864;27.676;2024-03-22T08:41:33;99206.31;;;5.60;73.00
64679;BME280;51094;53.864;27.676;2024-03-22T08:44:05;99185.00;;;5.89;74.92
64679;BME280;51094;53.864;27.676;2024-03-22T08:46:36;98904.94;;;4.74;73.93
64679;BME280;51094;53.864;27.676;2024-03-22T08:49:02;99186.41;;;6.74;73.37
64679;BME280;51094;53.864;27.676;2024-03-22T08:51:31;99082.84;;;5.85;72.96
64679;BME280;51094;53.864;27.676;2024-03-22T08:54:06;99194.25;;;7.02;71.50
64679;BME280;51094;53.864;27.676;2024-03-22T08:56:40;99137.31;;;6.74;71.48
64679;BME280;51094;53.864;27.676;2024-03-22T08:59:10;99148.81;;;6.84;71.01
64679;BME280;51094;53.864;27.676;2024-03-22T09:01:36;99193.78;;;7.25;69.73
64679;BME280;51094;53.864;27.676;2024-03-22T09:04:07;99145.63;;;7.09;69.57
64679;BME280;51094;53.864;27.676;2024-03-22T09:06:39;99184.63;;;7.20;69.43
64679;BME280;51094;53.864;27.676;2024-03-22T09:09:05;99130.53;;;6.87;69.37
64679;BME280;51094;53.864;27.676;2024-03-22T09:11:33;99140.78;;;7.47;70.19
64679;BME280;51094;53.864;27.676;2024-03-22T09:14:07;99180.22;;;7.93;69.46
64679;BME280;51094;53.864;27.676;2024-03-22T09:16:33;99144.22;;;7.76;68.45
64679;BME280;51094;53.864;27.676;2024-03-22T09:18:59;99114.97;;;7.88;67.60
64679;BME280;51094;53.864;27.676;2024-03-22T09:21:26;99166.56;;;8.46;68.81
64679;BME280;51094;53.864;27.676;2024-03-22T09:23:59;99160.06;;;8.53;65.13
64679;BME280;51094;53.864;27.676;2024-03-22T09:26:34;99111.97;;;8.08;63.92
64679;BME280;51094;53.864;27.676;2024-03-22T09:29:13;99119.09;;;8.31;65.65
64679;BME280;51094;53.864;27.676;2024-03-22T09:31:39;99141.47;;;8.74;65.55
64679;BME280;51094;53.864;27.676;2024-03-22T09:34:05;99110.06;;;8.39;63.90
64679;BME280;51094;53.864;27.676;2024-03-22T09:36:37;99131.06;;;8.61;65.23
64679;BME280;51094;53.864;27.676;2024-03-22T09:39:09;99137.88;;;8.89;63.15
64679;BME280;51094;53.864;27.676;2024-03-22T09:41:43;99136.75;;;8.93;62.38
64679;BME280;51094;53.864;27.676;2024-03-22T09:44:17;99108.00;;;8.83;63.20
64679;BME280;51094;53.864;27.676;2024-03-22T09:46:53;99116.19;;;8.90;61.62
64679;BME280;51094;53.864;27.676;2024-03-22T09:49:26;99127.72;;;8.86;62.49
64679;BME280;51094;53.864;27.676;2024-03-22T09:51:58;99061.50;;;8.67;61.51
64679;BME280;51094;53.864;27.676;2024-03-22T09:54:28;99106.31;;;8.82;60.99
64679;BME280;51094;53.864;27.676;2024-03-22T09:56:55;99103.88;;;8.93;61.67
64679;BME280;51094;53.864;27.676;2024-03-22T09:59:27;99097.25;;;9.27;61.28
64679;BME280;51094;53.864;27.676;2024-03-22T10:01:58;99080.13;;;9.38;59.03
64679;BME280;51094;53.864;27.676;2024-03-22T10:04:27;99096.63;;;9.49;59.73
64679;BME280;51094;53.864;27.676;2024-03-22T10:06:55;99073.88;;;8.89;60.64
64679;BME280;51094;53.864;27.676;2024-03-22T10:09:37;99096.25;;;8.78;61.26
64679;BME280;51094;53.864;27.676;2024-03-22T10:12:06;98981.47;;;8.11;62.31
64679;BME280;51094;53.864;27.676;2024-03-22T10:14:35;99093.06;;;8.87;61.51
64679;BME280;51094;53.864;27.676;2024-03-22T10:17:02;99100.66;;;8.90;61.62
64679;BME280;51094;53.864;27.676;2024-03-22T10:19:29;99106.38;;;8.55;60.98
64679;BME280;51094;53.864;27.676;2024-03-22T10:22:02;99071.00;;;8.27;62.38
64679;BME280;51094;53.864;27.676;2024-03-22T10:24:33;99073.78;;;8.24;62.26
64679;BME280;51094;53.864;27.676;2024-03-22T10:26:59;99074.06;;;8.34;63.49
64679;BME280;51094;53.864;27.676;2024-03-22T10:29:26;99094.84;;;8.47;63.05
64679;BME280;51094;53.864;27.676;2024-03-22T10:31:55;99069.50;;;8.64;63.48
64679;BME280;51094;53.864;27.676;2024-03-22T10:34:22;99075.28;;;8.68;61.90
64679;BME280;51094;53.864;27.676;2024-03-22T10:36:50;99057.88;;;8.57;62.56
64679;BME280;51094;53.864;27.676;2024-03-22T10:39:23;99068.78;;;8.62;62.09
64679;BME280;51094;53.864;27.676;2024-03-22T10:41:50;99057.16;;;8.55;62.12
64679;BME280;51094;53.864;27.676;2024-03-22T10:44:19;99051.44;;;8.50;62.67
64679;BME280;51094;53.864;27.676;2024-03-22T10:46:47;99087.44;;;8.14;62.78
64679;BME280;51094;53.864;27.676;2024-03-22T10:49:20;99079.03;;;8.10;63.57
64679;BME280;51094;53.864;27.676;2024-03-22T10:51:59;99060.22;;;8.21;63.41
64679;BME280;51094;53.864;27.676;2024-03-22T10:54:36;99060.44;;;8.18;63.75
64679;BME280;51094;53.864;27.676;2024-03-22T10:57:07;99117.59;;;8.15;63.82
64679;BME280;51094;53.864;27.676;2024-03-22T10:59:37;98968.50;;;7.71;64.15
64679;BME280;51094;53.864;27.676;2024-03-22T11:02:04;99037.16;;;8.04;64.15
64679;BME280;51094;53.864;27.676;2024-03-22T11:04:34;99043.34;;;8.28;63.98
64679;BME280;51094;53.864;27.676;2024-03-22T11:07:01;99051.69;;;8.33;63.95
64679;BME280;51094;53.864;27.676;2024-03-22T11:09:29;99055.75;;;8.37;63.47
64679;BME280;51094;53.864;27.676;2024-03-22T11:11:56;99015.03;;;8.25;63.72
64679;BME280;51094;53.864;27.676;2024-03-22T11:14:24;99042.09;;;8.48;62.97
64679;BME280;51094;53.864;27.676;2024-03-22T11:16:50;99042.53;;;8.54;63.24
64679;BME280;51094;53.864;27.676;2024-03-22T11:19:16;99040.16;;;8.64;62.67
64679;BME280;51094;53.864;27.676;2024-03-22T11:21:48;99063.25;;;8.54;62.51
64679;BME280;51094;53.864;27.676;2024-03-22T11:24:15;98921.34;;;7.93;63.55
64679;BME280;51094;53.864;27.676;2024-03-22T11:26:43;99018.69;;;8.75;62.47
64679;BME280;51094;53.864;27.676;2024-03-22T11:29:10;99017.06;;;8.99;62.83
64679;BME280;51094;53.864;27.676;2024-03-22T11:31:38;99025.75;;;8.98;60.66
64679;BME280;51094;53.864;27.676;2024-03-22T11:34:04;99017.25;;;8.83;60.92
64679;BME280;51094;53.864;27.676;2024-03-22T11:36:35;99013.41;;;8.89;60.26
64679;BME280;51094;53.864;27.676;2024-03-22T11:39:01;98990.28;;;8.86;60.88
64679;BME280;51094;53.864;27.676;2024-03-22T11:41:30;99004.09;;;8.99;60.47
64679;BME280;51094;53.864;27.676;2024-03-22T11:44:00;99001.47;;;9.12;60.59
64679;BME280;51094;53.864;27.676;2024-03-22T11:46:33;98997.66;;;9.05;60.68
64679;BME280;51094;53.864;27.676;2024-03-22T11:49:00;98988.53;;;8.99;60.59
64679;BME280;51094;53.864;27.676;2024-03-22T11:51:26;98993.50;;;9.02;59.45
64679;BME280;51094;53.864;27.676;2024-03-22T11:53:55;98909.38;;;8.30;61.08
64679;BME280;51094;53.864;27.676;2024-03-22T11:56:22;98988.09;;;8.67;61.14
64679;BME280;51094;53.864;27.676;2024-03-22T11:58:49;98968.94;;;8.57;62.61
64679;BME280;51094;53.864;27.676;2024-03-22T12:01:16;98984.69;;;8.54;63.09
64679;BME280;51094;53.864;27.676;2024-03-22T12:03:46;98971.81;;;8.40;63.14
64679;BME280;51094;53.864;27.676;2024-03-22T12:06:13;98974.09;;;8.44;63.67
64679;BME280;51094;53.864;27.676;2024-03-22T12:08:43;98964.66;;;8.43;63.56
64679;BME280;51094;53.864;27.676;2024-03-22T12:11:12;98907.19;;;8.11;63.25
64679;BME280;51094;53.864;27.676;2024-03-22T12:13:38;98951.47;;;8.33;63.65
64679;BME280;51094;53.864;27.676;2024-03-22T12:16:07;98956.06;;;8.43;63.68
64679;BME280;51094;53.864;27.676;2024-03-22T12:18:33;98964.31;;;8.35;63.51
64679;BME280;51094;53.864;27.676;2024-03-22T12:21:00;98838.81;;;7.49;64.18
64679;BME280;51094;53.864;27.676;2024-03-22T12:23:26;98948.00;;;8.08;63.52
64679;BME280;51094;53.864;27.676;2024-03-22T12:25:55;98957.34;;;8.23;64.96
64679;BME280;51094;53.864;27.676;2024-03-22T12:28:24;98956.94;;;8.29;63.96
64679;BME280;51094;53.864;27.676;2024-03-22T12:30:51;98685.31;;;6.71;64.08
64679;BME280;51094;53.864;27.676;2024-03-22T12:33:17;98955.81;;;8.33;63.46
64679;BME280;51094;53.864;27.676;2024-03-22T12:35:48;98857.00;;;7.74;63.60
64679;BME280;51094;53.864;27.676;2024-03-22T12:38:14;98946.38;;;8.19;64.07
64679;BME280;51094;53.864;27.676;2024-03-22T12:40:40;98929.66;;;8.11;65.01
64679;BME280;51094;53.864;27.676;2024-03-22T12:43:09;98949.50;;;7.97;65.16
64679;BME280;51094;53.864;27.676;2024-03-22T12:45:39;98935.88;;;8.08;64.75
64679;BME280;51094;53.864;27.676;2024-03-22T12:48:07;98933.88;;;7.99;64.94
64679;BME280;51094;53.864;27.676;2024-03-22T12:50:34;99023.13;;;7.93;65.69
64679;BME280;51094;53.864;27.676;2024-03-22T12:53:01;98873.19;;;7.51;66.09
64679;BME280;51094;53.864;27.676;2024-03-22T12:55:27;98925.69;;;7.92;66.19
64679;BME280;51094;53.864;27.676;2024-03-22T12:57:54;98882.06;;;7.74;66.21
64679;BME280;51094;53.864;27.676;2024-03-22T13:00:20;98928.06;;;7.95;66.00
64679;BME280;51094;53.864;27.676;2024-03-22T13:02:46;98919.78;;;7.90;66.47
64679;BME280;51094;53.864;27.676;2024-03-22T13:05:13;98876.63;;;7.37;66.39
64679;BME280;51094;53.864;27.676;2024-03-22T13:07:43;98908.69;;;7.88;66.56